sensor_id;sensor_type;location;lat;lon;timestamp;P1;durP1;ratioP1;P2;durP2;ratioP2
75971;SDS011;64651;47.540;19.088;2023-06-22T00:02:15;17.33;;;8.52;;
75971;SDS011;64651;47.540;19.088;2023-06-22T00:07:17;16.47;;;8.83;;
75971;SDS011;64651;47.540;19.088;2023-06-22T00:12:19;20.05;;;9.05;;
75971;SDS011;64651;47.540;19.088;2023-06-22T00:17:22;18.92;;;9.82;;
75971;SDS011;64651;47.540;19.088;2023-06-22T00:22:24;18.90;;;10.13;;
75971;SDS011;64651;47.540;19.088;2023-06-22T00:27:31;17.67;;;9.00;;
75971;SDS011;64651;47.540;19.088;2023-06-22T00:32:33;16.50;;;9.50;;
75971;SDS011;64651;47.540;19.088;2023-06-22T00:37:36;16.40;;;8.90;;
75971;SDS011;64651;47.540;19.088;2023-06-22T00:42:40;17.55;;;9.85;;
75971;SDS011;64651;47.540;19.088;2023-06-22T00:47:42;17.48;;;9.93;;
75971;SDS011;64651;47.540;19.088;2023-06-22T00:52:53;18.87;;;9.40;;
75971;SDS011;64651;47.540;19.088;2023-06-22T00:58:00;18.40;;;9.30;;
75971;SDS011;64651;47.540;19.088;2023-06-22T01:03:02;16.95;;;9.90;;
75971;SDS011;64651;47.540;19.088;2023-06-22T01:13:35;18.62;;;10.13;;
75971;SDS011;64651;47.540;19.088;2023-06-22T01:18:40;19.27;;;9.75;;
75971;SDS011;64651;47.540;19.088;2023-06-22T01:29:08;17.62;;;9.73;;
75971;SDS011;64651;47.540;19.088;2023-06-22T01:34:16;20.12;;;10.00;;
75971;SDS011;64651;47.540;19.088;2023-06-22T01:39:19;19.30;;;10.23;;
75971;SDS011;64651;47.540;19.088;2023-06-22T01:44:23;19.77;;;10.95;;
75971;SDS011;64651;47.540;19.088;2023-06-22T01:49:27;23.97;;;10.50;;
75971;SDS011;64651;47.540;19.088;2023-06-22T01:54:30;19.02;;;10.50;;
75971;SDS011;64651;47.540;19.088;2023-06-22T01:59:34;18.25;;;9.98;;
75971;SDS011;64651;47.540;19.088;2023-06-22T02:04:43;21.37;;;10.03;;
75971;SDS011;64651;47.540;19.088;2023-06-22T02:09:50;22.17;;;10.07;;
75971;SDS011;64651;47.540;19.088;2023-06-22T02:14:54;21.43;;;10.33;;
75971;SDS011;64651;47.540;19.088;2023-06-22T02:19:57;19.30;;;10.55;;
75971;SDS011;64651;47.540;19.088;2023-06-22T02:25:00;21.40;;;10.82;;
75971;SDS011;64651;47.540;19.088;2023-06-22T02:30:02;23.08;;;10.75;;
75971;SDS011;64651;47.540;19.088;2023-06-22T02:35:05;19.87;;;9.85;;
75971;SDS011;64651;47.540;19.088;2023-06-22T02:40:08;22.60;;;10.80;;
75971;SDS011;64651;47.540;19.088;2023-06-22T02:45:12;20.30;;;10.05;;
75971;SDS011;64651;47.540;19.088;2023-06-22T02:50:15;18.10;;;9.55;;
75971;SDS011;64651;47.540;19.088;2023-06-22T02:55:17;17.15;;;9.50;;
75971;SDS011;64651;47.540;19.088;2023-06-22T03:00:19;20.83;;;8.52;;
75971;SDS011;64651;47.540;19.088;2023-06-22T03:05:23;15.37;;;8.37;;
75971;SDS011;64651;47.540;19.088;2023-06-22T03:10:26;20.33;;;8.10;;
75971;SDS011;64651;47.540;19.088;2023-06-22T03:15:28;15.02;;;7.10;;
75971;SDS011;64651;47.540;19.088;2023-06-22T03:20:31;16.55;;;7.65;;
75971;SDS011;64651;47.540;19.088;2023-06-22T03:25:35;15.05;;;8.18;;
75971;SDS011;64651;47.540;19.088;2023-06-22T03:30:37;17.47;;;9.10;;
75971;SDS011;64651;47.540;19.088;2023-06-22T03:35:40;19.23;;;8.88;;
75971;SDS011;64651;47.540;19.088;2023-06-22T03:40:42;16.02;;;8.20;;
75971;SDS011;64651;47.540;19.088;2023-06-22T03:45:44;17.23;;;8.77;;
75971;SDS011;64651;47.540;19.088;2023-06-22T03:50:47;18.52;;;9.15;;
75971;SDS011;64651;47.540;19.088;2023-06-22T03:55:52;18.23;;;8.83;;
75971;SDS011;64651;47.540;19.088;2023-06-22T04:00:56;18.33;;;8.90;;
75971;SDS011;64651;47.540;19.088;2023-06-22T04:05:58;19.17;;;7.95;;
75971;SDS011;64651;47.540;19.088;2023-06-22T04:11:00;19.15;;;8.23;;
75971;SDS011;64651;47.540;19.088;2023-06-22T04:16:03;13.43;;;7.55;;
75971;SDS011;64651;47.540;19.088;2023-06-22T04:21:06;17.20;;;7.97;;
75971;SDS011;64651;47.540;19.088;2023-06-22T04:26:08;17.85;;;7.70;;
75971;SDS011;64651;47.540;19.088;2023-06-22T04:31:11;15.40;;;8.23;;
75971;SDS011;64651;47.540;19.088;2023-06-22T04:36:14;12.88;;;7.10;;
75971;SDS011;64651;47.540;19.088;2023-06-22T04:41:16;14.65;;;6.87;;
75971;SDS011;64651;47.540;19.088;2023-06-22T04:46:26;15.43;;;7.07;;
75971;SDS011;64651;47.540;19.088;2023-06-22T04:51:28;16.45;;;7.35;;
75971;SDS011;64651;47.540;19.088;2023-06-22T04:56:32;15.40;;;7.18;;
75971;SDS011;64651;47.540;19.088;2023-06-22T05:01:35;13.73;;;7.30;;
75971;SDS011;64651;47.540;19.088;2023-06-22T05:06:37;16.12;;;7.22;;
75971;SDS011;64651;47.540;19.088;2023-06-22T05:11:41;13.37;;;6.93;;
75971;SDS011;64651;47.540;19.088;2023-06-22T05:16:44;16.23;;;7.28;;
75971;SDS011;64651;47.540;19.088;2023-06-22T05:21:47;15.23;;;7.07;;
75971;SDS011;64651;47.540;19.088;2023-06-22T05:26:49;14.83;;;7.37;;
75971;SDS011;64651;47.540;19.088;2023-06-22T05:31:51;15.07;;;6.93;;
75971;SDS011;64651;47.540;19.088;2023-06-22T05:36:54;14.03;;;8.17;;
75971;SDS011;64651;47.540;19.088;2023-06-22T05:41:56;15.77;;;7.25;;
75971;SDS011;64651;47.540;19.088;2023-06-22T05:46:59;15.07;;;7.05;;
75971;SDS011;64651;47.540;19.088;2023-06-22T05:52:01;14.32;;;7.50;;
75971;SDS011;64651;47.540;19.088;2023-06-22T05:57:04;16.77;;;8.77;;
75971;SDS011;64651;47.540;19.088;2023-06-22T06:02:06;14.53;;;8.07;;
75971;SDS011;64651;47.540;19.088;2023-06-22T06:07:09;15.38;;;7.28;;
75971;SDS011;64651;47.540;19.088;2023-06-22T06:12:11;17.05;;;7.47;;
75971;SDS011;64651;47.540;19.088;2023-06-22T06:17:13;15.07;;;7.20;;
75971;SDS011;64651;47.540;19.088;2023-06-22T06:22:15;16.70;;;7.45;;
75971;SDS011;64651;47.540;19.088;2023-06-22T06:27:18;14.53;;;5.90;;
75971;SDS011;64651;47.540;19.088;2023-06-22T06:32:20;15.85;;;6.82;;
75971;SDS011;64651;47.540;19.088;2023-06-22T06:37:23;14.45;;;6.30;;
75971;SDS011;64651;47.540;19.088;2023-06-22T06:42:25;14.63;;;6.55;;
75971;SDS011;64651;47.540;19.088;2023-06-22T06:47:28;13.93;;;6.22;;
75971;SDS011;64651;47.540;19.088;2023-06-22T06:52:36;14.03;;;5.87;;
75971;SDS011;64651;47.540;19.088;2023-06-22T06:57:40;12.40;;;5.78;;
75971;SDS011;64651;47.540;19.088;2023-06-22T07:02:44;13.13;;;5.90;;
75971;SDS011;64651;47.540;19.088;2023-06-22T07:07:50;14.55;;;5.68;;
75971;SDS011;64651;47.540;19.088;2023-06-22T07:12:52;13.65;;;5.78;;
75971;SDS011;64651;47.540;19.088;2023-06-22T07:17:55;12.53;;;5.27;;
75971;SDS011;64651;47.540;19.088;2023-06-22T07:22:57;15.35;;;5.95;;
75971;SDS011;64651;47.540;19.088;2023-06-22T07:28:03;13.18;;;5.20;;
75971;SDS011;64651;47.540;19.088;2023-06-22T07:33:08;11.57;;;5.13;;
75971;SDS011;64651;47.540;19.088;2023-06-22T07:38:11;12.60;;;5.60;;
75971;SDS011;64651;47.540;19.088;2023-06-22T07:43:13;16.20;;;5.70;;
75971;SDS011;64651;47.540;19.088;2023-06-22T07:48:15;11.45;;;5.57;;
75971;SDS011;64651;47.540;19.088;2023-06-22T07:53:17;11.35;;;5.05;;
75971;SDS011;64651;47.540;19.088;2023-06-22T07:58:20;12.47;;;5.13;;
75971;SDS011;64651;47.540;19.088;2023-06-22T08:03:22;11.50;;;4.95;;
75971;SDS011;64651;47.540;19.088;2023-06-22T08:08:25;11.97;;;5.20;;
75971;SDS011;64651;47.540;19.088;2023-06-22T08:13:27;13.73;;;6.25;;
75971;SDS011;64651;47.540;19.088;2023-06-22T08:18:29;14.07;;;7.28;;
75971;SDS011;64651;47.540;19.088;2023-06-22T08:23:31;13.50;;;7.13;;
75971;SDS011;64651;47.540;19.088;2023-06-22T08:28:34;13.43;;;8.20;;
75971;SDS011;64651;47.540;19.088;2023-06-22T08:33:36;15.47;;;9.87;;
75971;SDS011;64651;47.540;19.088;2023-06-22T08:38:41;15.05;;;9.90;;
75971;SDS011;64651;47.540;19.088;2023-06-22T08:43:44;15.45;;;11.00;;
75971;SDS011;64651;47.540;19.088;2023-06-22T08:48:46;13.90;;;11.10;;
75971;SDS011;64651;47.540;19.088;2023-06-22T08:53:49;16.73;;;13.23;;
75971;SDS011;64651;47.540;19.088;2023-06-22T08:58:51;15.63;;;13.77;;
75971;SDS011;64651;47.540;19.088;2023-06-22T09:03:54;17.33;;;15.38;;
75971;SDS011;64651;47.540;19.088;2023-06-22T09:08:58;17.90;;;15.07;;
75971;SDS011;64651;47.540;19.088;2023-06-22T09:14:03;25.48;;;15.80;;
75971;SDS011;64651;47.540;19.088;2023-06-22T09:19:05;16.42;;;14.73;;
75971;SDS011;64651;47.540;19.088;2023-06-22T09:24:07;17.83;;;16.23;;
75971;SDS011;64651;47.540;19.088;2023-06-22T09:29:10;18.73;;;16.83;;
75971;SDS011;64651;47.540;19.088;2023-06-22T09:34:12;20.15;;;17.67;;
75971;SDS011;64651;47.540;19.088;2023-06-22T09:39:14;22.10;;;20.10;;
75971;SDS011;64651;47.540;19.088;2023-06-22T09:44:17;24.58;;;22.58;;
75971;SDS011;64651;47.540;19.088;2023-06-22T09:49:19;26.10;;;23.70;;
75971;SDS011;64651;47.540;19.088;2023-06-22T09:54:42;22.35;;;20.12;;
75971;SDS011;64651;47.540;19.088;2023-06-22T09:59:44;23.10;;;21.12;;
75971;SDS011;64651;47.540;19.088;2023-06-22T10:04:48;23.38;;;21.00;;
75971;SDS011;64651;47.540;19.088;2023-06-22T10:09:51;23.55;;;21.35;;
75971;SDS011;64651;47.540;19.088;2023-06-22T10:14:53;25.23;;;22.93;;
75971;SDS011;64651;47.540;19.088;2023-06-22T10:19:56;22.58;;;20.40;;
75971;SDS011;64651;47.540;19.088;2023-06-22T10:24:58;24.48;;;22.23;;
75971;SDS011;64651;47.540;19.088;2023-06-22T10:30:01;27.60;;;25.42;;
75971;SDS011;64651;47.540;19.088;2023-06-22T10:35:04;30.67;;;28.30;;
75971;SDS011;64651;47.540;19.088;2023-06-22T10:40:07;27.70;;;25.43;;
75971;SDS011;64651;47.540;19.088;2023-06-22T10:45:11;27.25;;;24.90;;
75971;SDS011;64651;47.540;19.088;2023-06-22T10:50:14;26.05;;;23.98;;
75971;SDS011;64651;47.540;19.088;2023-06-22T10:55:16;28.95;;;26.40;;
75971;SDS011;64651;47.540;19.088;2023-06-22T11:00:19;27.80;;;25.40;;
75971;SDS011;64651;47.540;19.088;2023-06-22T11:05:21;29.50;;;27.00;;
75971;SDS011;64651;47.540;19.088;2023-06-22T11:10:23;32.72;;;30.10;;
75971;SDS011;64651;47.540;19.088;2023-06-22T11:15:26;32.40;;;29.92;;
75971;SDS011;64651;47.540;19.088;2023-06-22T11:20:28;32.30;;;29.70;;
75971;SDS011;64651;47.540;19.088;2023-06-22T11:25:31;32.08;;;29.58;;
75971;SDS011;64651;47.540;19.088;2023-06-22T11:30:33;31.77;;;29.37;;
75971;SDS011;64651;47.540;19.088;2023-06-22T11:35:36;35.53;;;32.92;;
75971;SDS011;64651;47.540;19.088;2023-06-22T11:40:38;34.17;;;31.60;;
75971;SDS011;64651;47.540;19.088;2023-06-22T11:45:46;32.80;;;30.42;;
75971;SDS011;64651;47.540;19.088;2023-06-22T11:50:48;34.22;;;31.55;;
75971;SDS011;64651;47.540;19.088;2023-06-22T11:55:51;31.87;;;29.37;;
75971;SDS011;64651;47.540;19.088;2023-06-22T12:00:54;25.73;;;23.52;;
75971;SDS011;64651;47.540;19.088;2023-06-22T12:05:57;26.92;;;24.65;;
75971;SDS011;64651;47.540;19.088;2023-06-22T12:11:00;27.50;;;25.20;;
75971;SDS011;64651;47.540;19.088;2023-06-22T12:16:02;23.87;;;21.62;;
75971;SDS011;64651;47.540;19.088;2023-06-22T12:21:05;22.87;;;20.73;;
75971;SDS011;64651;47.540;19.088;2023-06-22T12:26:07;24.37;;;21.83;;
75971;SDS011;64651;47.540;19.088;2023-06-22T12:31:09;27.35;;;25.02;;
75971;SDS011;64651;47.540;19.088;2023-06-22T12:36:12;27.42;;;25.12;;
75971;SDS011;64651;47.540;19.088;2023-06-22T12:41:14;29.65;;;27.13;;
75971;SDS011;64651;47.540;19.088;2023-06-22T12:46:16;32.37;;;29.50;;
75971;SDS011;64651;47.540;19.088;2023-06-22T12:51:22;32.50;;;30.00;;
75971;SDS011;64651;47.540;19.088;2023-06-22T12:56:25;35.88;;;33.30;;
75971;SDS011;64651;47.540;19.088;2023-06-22T13:01:27;35.33;;;32.53;;
75971;SDS011;64651;47.540;19.088;2023-06-22T13:06:33;30.25;;;27.52;;
75971;SDS011;64651;47.540;19.088;2023-06-22T13:11:35;28.20;;;25.80;;
75971;SDS011;64651;47.540;19.088;2023-06-22T13:16:37;27.80;;;25.58;;
75971;SDS011;64651;47.540;19.088;2023-06-22T13:21:40;27.95;;;25.62;;
75971;SDS011;64651;47.540;19.088;2023-06-22T13:26:44;29.58;;;26.85;;
75971;SDS011;64651;47.540;19.088;2023-06-22T13:31:48;30.45;;;28.10;;
75971;SDS011;64651;47.540;19.088;2023-06-22T13:36:50;30.20;;;27.83;;
75971;SDS011;64651;47.540;19.088;2023-06-22T13:41:53;29.67;;;27.13;;
75971;SDS011;64651;47.540;19.088;2023-06-22T13:46:55;26.23;;;23.77;;
75971;SDS011;64651;47.540;19.088;2023-06-22T13:52:11;25.48;;;23.45;;
75971;SDS011;64651;47.540;19.088;2023-06-22T13:57:15;28.00;;;25.88;;
75971;SDS011;64651;47.540;19.088;2023-06-22T14:02:21;27.97;;;25.67;;
75971;SDS011;64651;47.540;19.088;2023-06-22T14:07:27;30.52;;;28.15;;
75971;SDS011;64651;47.540;19.088;2023-06-22T14:12:37;30.15;;;27.95;;
75971;SDS011;64651;47.540;19.088;2023-06-22T14:17:43;26.83;;;24.63;;
75971;SDS011;64651;47.540;19.088;2023-06-22T14:22:47;27.52;;;25.20;;
75971;SDS011;64651;47.540;19.088;2023-06-22T14:27:56;26.80;;;24.47;;
75971;SDS011;64651;47.540;19.088;2023-06-22T14:32:58;27.37;;;25.27;;
75971;SDS011;64651;47.540;19.088;2023-06-22T14:38:00;26.92;;;24.63;;
75971;SDS011;64651;47.540;19.088;2023-06-22T14:43:02;28.45;;;26.35;;
75971;SDS011;64651;47.540;19.088;2023-06-22T14:48:05;29.90;;;27.65;;
75971;SDS011;64651;47.540;19.088;2023-06-22T14:53:07;28.73;;;26.10;;
75971;SDS011;64651;47.540;19.088;2023-06-22T14:58:09;28.42;;;26.02;;
75971;SDS011;64651;47.540;19.088;2023-06-22T15:03:12;27.50;;;25.30;;
75971;SDS011;64651;47.540;19.088;2023-06-22T15:08:19;27.10;;;24.83;;
75971;SDS011;64651;47.540;19.088;2023-06-22T15:13:21;24.37;;;22.35;;
75971;SDS011;64651;47.540;19.088;2023-06-22T15:18:27;27.40;;;25.20;;
75971;SDS011;64651;47.540;19.088;2023-06-22T15:23:30;24.58;;;22.45;;
75971;SDS011;64651;47.540;19.088;2023-06-22T15:28:33;27.05;;;24.85;;
75971;SDS011;64651;47.540;19.088;2023-06-22T15:33:39;26.60;;;24.12;;
75971;SDS011;64651;47.540;19.088;2023-06-22T15:38:41;25.42;;;23.40;;
75971;SDS011;64651;47.540;19.088;2023-06-22T15:43:47;23.70;;;21.53;;
75971;SDS011;64651;47.540;19.088;2023-06-22T15:48:49;23.58;;;21.50;;
75971;SDS011;64651;47.540;19.088;2023-06-22T15:53:57;24.75;;;22.45;;
75971;SDS011;64651;47.540;19.088;2023-06-22T15:58:59;22.02;;;20.10;;
75971;SDS011;64651;47.540;19.088;2023-06-22T16:04:03;21.98;;;19.98;;
75971;SDS011;64651;47.540;19.088;2023-06-22T16:09:05;20.53;;;18.33;;
75971;SDS011;64651;47.540;19.088;2023-06-22T16:14:08;21.60;;;19.50;;
75971;SDS011;64651;47.540;19.088;2023-06-22T16:19:14;18.95;;;17.02;;
75971;SDS011;64651;47.540;19.088;2023-06-22T16:24:39;19.98;;;17.87;;
75971;SDS011;64651;47.540;19.088;2023-06-22T16:29:44;18.25;;;16.30;;
75971;SDS011;64651;47.540;19.088;2023-06-22T16:34:46;19.57;;;17.67;;
75971;SDS011;64651;47.540;19.088;2023-06-22T16:39:49;19.05;;;17.05;;
75971;SDS011;64651;47.540;19.088;2023-06-22T16:44:51;18.60;;;16.10;;
75971;SDS011;64651;47.540;19.088;2023-06-22T16:49:56;18.47;;;15.93;;
75971;SDS011;64651;47.540;19.088;2023-06-22T16:54:58;17.08;;;14.18;;
75971;SDS011;64651;47.540;19.088;2023-06-22T17:00:05;20.63;;;16.03;;
75971;SDS011;64651;47.540;19.088;2023-06-22T17:05:14;20.23;;;14.85;;
75971;SDS011;64651;47.540;19.088;2023-06-22T17:10:17;18.65;;;14.95;;
75971;SDS011;64651;47.540;19.088;2023-06-22T17:15:21;17.43;;;15.63;;
75971;SDS011;64651;47.540;19.088;2023-06-22T17:20:24;20.85;;;14.68;;
75971;SDS011;64651;47.540;19.088;2023-06-22T17:25:28;18.93;;;14.93;;
75971;SDS011;64651;47.540;19.088;2023-06-22T17:30:36;16.42;;;13.73;;
75971;SDS011;64651;47.540;19.088;2023-06-22T17:35:45;17.25;;;14.32;;
75971;SDS011;64651;47.540;19.088;2023-06-22T17:40:49;18.87;;;14.63;;
75971;SDS011;64651;47.540;19.088;2023-06-22T17:45:52;20.73;;;14.63;;
75971;SDS011;64651;47.540;19.088;2023-06-22T17:50:59;18.27;;;15.37;;
75971;SDS011;64651;47.540;19.088;2023-06-22T17:56:02;19.75;;;15.20;;
75971;SDS011;64651;47.540;19.088;2023-06-22T18:01:04;19.48;;;15.05;;
75971;SDS011;64651;47.540;19.088;2023-06-22T18:06:07;20.27;;;14.60;;
75971;SDS011;64651;47.540;19.088;2023-06-22T18:11:10;16.77;;;14.10;;
75971;SDS011;64651;47.540;19.088;2023-06-22T18:16:13;17.63;;;15.17;;
75971;SDS011;64651;47.540;19.088;2023-06-22T18:21:15;19.80;;;14.32;;
75971;SDS011;64651;47.540;19.088;2023-06-22T18:26:22;19.10;;;14.32;;
75971;SDS011;64651;47.540;19.088;2023-06-22T18:31:25;19.00;;;12.50;;
75971;SDS011;64651;47.540;19.088;2023-06-22T18:36:29;20.27;;;13.40;;
75971;SDS011;64651;47.540;19.088;2023-06-22T18:41:38;16.87;;;11.73;;
75971;SDS011;64651;47.540;19.088;2023-06-22T18:46:51;17.55;;;12.98;;
75971;SDS011;64651;47.540;19.088;2023-06-22T18:57:24;16.63;;;11.90;;
75971;SDS011;64651;47.540;19.088;2023-06-22T19:02:44;16.58;;;10.88;;
75971;SDS011;64651;47.540;19.088;2023-06-22T19:12:55;16.95;;;11.75;;
75971;SDS011;64651;47.540;19.088;2023-06-22T19:17:59;18.52;;;12.02;;
75971;SDS011;64651;47.540;19.088;2023-06-22T19:28:29;16.70;;;11.88;;
75971;SDS011;64651;47.540;19.088;2023-06-22T19:33:33;17.40;;;12.27;;
75971;SDS011;64651;47.540;19.088;2023-06-22T19:38:37;15.38;;;11.82;;
75971;SDS011;64651;47.540;19.088;2023-06-22T19:43:41;17.60;;;11.57;;
75971;SDS011;64651;47.540;19.088;2023-06-22T19:48:44;16.57;;;11.90;;
75971;SDS011;64651;47.540;19.088;2023-06-22T19:53:48;19.30;;;12.88;;
75971;SDS011;64651;47.540;19.088;2023-06-22T19:58:51;17.10;;;11.63;;
75971;SDS011;64651;47.540;19.088;2023-06-22T20:03:55;21.30;;;13.53;;
75971;SDS011;64651;47.540;19.088;2023-06-22T20:08:58;15.85;;;11.70;;
75971;SDS011;64651;47.540;19.088;2023-06-22T20:14:04;18.63;;;11.47;;
75971;SDS011;64651;47.540;19.088;2023-06-22T20:19:13;17.40;;;12.13;;
75971;SDS011;64651;47.540;19.088;2023-06-22T20:24:17;16.77;;;11.95;;
75971;SDS011;64651;47.540;19.088;2023-06-22T20:34:26;18.45;;;12.35;;
75971;SDS011;64651;47.540;19.088;2023-06-22T20:39:28;17.30;;;12.57;;
75971;SDS011;64651;47.540;19.088;2023-06-22T20:44:31;20.50;;;12.00;;
75971;SDS011;64651;47.540;19.088;2023-06-22T20:49:33;17.27;;;12.30;;
75971;SDS011;64651;47.540;19.088;2023-06-22T20:54:37;17.08;;;11.90;;
75971;SDS011;64651;47.540;19.088;2023-06-22T20:59:40;19.05;;;11.70;;
75971;SDS011;64651;47.540;19.088;2023-06-22T21:04:42;17.67;;;12.30;;
75971;SDS011;64651;47.540;19.088;2023-06-22T21:09:44;19.90;;;12.70;;
75971;SDS011;64651;47.540;19.088;2023-06-22T21:14:52;15.50;;;12.05;;
75971;SDS011;64651;47.540;19.088;2023-06-22T21:19:54;21.10;;;12.80;;
75971;SDS011;64651;47.540;19.088;2023-06-22T21:30:08;18.63;;;12.67;;
75971;SDS011;64651;47.540;19.088;2023-06-22T21:35:11;17.95;;;12.88;;
75971;SDS011;64651;47.540;19.088;2023-06-22T21:40:15;19.12;;;12.75;;
75971;SDS011;64651;47.540;19.088;2023-06-22T21:45:17;19.87;;;14.37;;
75971;SDS011;64651;47.540;19.088;2023-06-22T21:50:20;17.70;;;13.90;;
75971;SDS011;64651;47.540;19.088;2023-06-22T21:55:22;19.97;;;13.23;;
75971;SDS011;64651;47.540;19.088;2023-06-22T22:00:25;20.02;;;14.30;;
75971;SDS011;64651;47.540;19.088;2023-06-22T22:05:27;20.27;;;15.52;;
75971;SDS011;64651;47.540;19.088;2023-06-22T22:10:30;20.53;;;15.57;;
75971;SDS011;64651;47.540;19.088;2023-06-22T22:15:33;19.90;;;15.48;;
75971;SDS011;64651;47.540;19.088;2023-06-22T22:20:35;20.20;;;15.53;;
75971;SDS011;64651;47.540;19.088;2023-06-22T22:25:38;21.00;;;16.20;;
75971;SDS011;64651;47.540;19.088;2023-06-22T22:30:41;21.70;;;15.40;;
75971;SDS011;64651;47.540;19.088;2023-06-22T22:35:43;21.37;;;16.45;;
75971;SDS011;64651;47.540;19.088;2023-06-22T22:40:46;23.60;;;16.20;;
75971;SDS011;64651;47.540;19.088;2023-06-22T22:45:48;20.60;;;15.67;;
75971;SDS011;64651;47.540;19.088;2023-06-22T22:50:50;20.27;;;16.80;;
75971;SDS011;64651;47.540;19.088;2023-06-22T22:55:53;23.80;;;16.73;;
75971;SDS011;64651;47.540;19.088;2023-06-22T23:00:55;23.10;;;16.37;;
75971;SDS011;64651;47.540;19.088;2023-06-22T23:05:58;24.05;;;16.48;;
75971;SDS011;64651;47.540;19.088;2023-06-22T23:11:00;22.63;;;17.20;;
75971;SDS011;64651;47.540;19.088;2023-06-22T23:16:03;21.02;;;16.62;;
75971;SDS011;64651;47.540;19.088;2023-06-22T23:21:05;24.65;;;17.30;;
75971;SDS011;64651;47.540;19.088;2023-06-22T23:26:09;24.20;;;17.33;;
75971;SDS011;64651;47.540;19.088;2023-06-22T23:31:11;22.48;;;16.62;;
75971;SDS011;64651;47.540;19.088;2023-06-22T23:36:14;21.23;;;18.10;;
75971;SDS011;64651;47.540;19.088;2023-06-22T23:41:18;22.02;;;17.67;;
75971;SDS011;64651;47.540;19.088;2023-06-22T23:46:20;20.33;;;16.10;;
75971;SDS011;64651;47.540;19.088;2023-06-22T23:51:22;19.83;;;16.80;;
75971;SDS011;64651;47.540;19.088;2023-06-22T23:56:29;20.90;;;16.83;;
